Time;durP1;ratioP1;P1;durP2;ratioP2;P2;SDS_P1;SDS_P2;PMS_P1;PMS_P2;Temp;Humidity;BMP_temperature;BMP_pressure;BME280_temperature;BME280_humidity;BME280_pressure;Samples;Min_cycle;Max_cycle;Signal;HPM_P1;HPM_P2
2021/04/24 00:02:14;;;;;;;11.43;4.55;;;;;;;;;;5081031;28;32405;-72
2021/04/24 00:04:40;;;;;;;15.30;5.30;;;;;;;;;;5080803;28;32677;-76
2021/04/24 00:07:09;;;;;;;11.15;5.60;;;;;;;;;;5080945;28;32588;-76
2021/04/24 00:09:35;;;;;;;16.73;6.35;;;;;;;;;;5080747;28;32367;-75
2021/04/24 00:12:01;;;;;;;14.32;5.95;;;;;;;;;;5080766;28;31851;-74
2021/04/24 00:14:27;;;;;;;17.48;6.07;;;;;;;;;;5080154;28;32167;-77
2021/04/24 00:16:53;;;;;;;15.38;6.43;;;;;;;;;;5079042;28;31003;-76
2021/04/24 00:19:19;;;;;;;19.85;5.90;;;;;;;;;;5080943;28;32216;-75
2021/04/24 00:21:44;;;;;;;15.38;5.45;;;;;;;;;;5081011;28;32943;-72
2021/04/24 00:24:11;;;;;;;17.08;5.75;;;;;;;;;;5084288;28;32949;-72
2021/04/24 00:26:37;;;;;;;13.55;5.82;;;;;;;;;;5083768;28;32570;-76
2021/04/24 00:29:04;;;;;;;16.33;6.43;;;;;;;;;;5082558;28;31476;-72
2021/04/24 00:31:29;;;;;;;16.95;5.80;;;;;;;;;;5084161;28;31997;-74
2021/04/24 00:33:55;;;;;;;20.30;5.95;;;;;;;;;;5065709;28;30989;-74
2021/04/24 00:36:21;;;;;;;16.38;6.00;;;;;;;;;;5082617;28;31008;-73
2021/04/24 00:38:47;;;;;;;12.88;5.43;;;;;;;;;;5083698;28;32331;-74
2021/04/24 00:41:13;;;;;;;19.88;8.07;;;;;;;;;;5084123;28;31989;-72
2021/04/24 00:43:38;;;;;;;16.02;7.07;;;;;;;;;;5083604;28;32915;-74
2021/04/24 00:46:08;;;;;;;16.17;6.88;;;;;;;;;;5083738;28;32582;-72
2021/04/24 00:48:34;;;;;;;18.75;6.32;;;;;;;;;;5065837;28;30763;-73
2021/04/24 00:50:59;;;;;;;18.67;6.53;;;;;;;;;;5083559;28;31732;-73
2021/04/24 00:53:25;;;;;;;14.57;6.25;;;;;;;;;;5083622;28;31912;-74
2021/04/24 00:55:51;;;;;;;20.00;7.57;;;;;;;;;;5083607;28;33436;-73
2021/04/24 00:58:16;;;;;;;25.13;7.35;;;;;;;;;;5083848;28;32427;-75
2021/04/24 01:00:42;;;;;;;15.30;6.70;;;;;;;;;;5083394;28;32518;-75
2021/04/24 01:03:08;;;;;;;19.42;7.22;;;;;;;;;;5083743;28;31939;-74
2021/04/24 01:05:35;;;;;;;13.57;6.53;;;;;;;;;;5083774;28;32516;-75
2021/04/24 01:08:01;;;;;;;19.52;7.70;;;;;;;;;;5082098;28;32279;-76
2021/04/24 01:10:30;;;;;;;17.88;6.55;;;;;;;;;;5083426;28;32095;-75
2021/04/24 01:12:56;;;;;;;17.88;6.93;;;;;;;;;;5083259;28;32204;-75
2021/04/24 01:15:22;;;;;;;15.98;7.65;;;;;;;;;;5083450;28;33616;-75
2021/04/24 01:17:48;;;;;;;25.88;6.95;;;;;;;;;;5083424;28;32256;-75
2021/04/24 01:20:14;;;;;;;22.45;6.40;;;;;;;;;;5084131;28;32993;-74
2021/04/24 01:22:44;;;;;;;21.25;7.90;;;;;;;;;;5084293;28;32074;-74
2021/04/24 01:25:12;;;;;;;18.30;6.78;;;;;;;;;;5083506;28;32547;-75
2021/04/24 01:27:38;;;;;;;26.63;7.72;;;;;;;;;;5083186;28;32235;-75
2021/04/24 01:30:05;;;;;;;16.65;7.15;;;;;;;;;;5083130;28;32023;-70
2021/04/24 01:32:31;;;;;;;17.33;6.60;;;;;;;;;;5082972;28;32958;-70
2021/04/24 01:34:56;;;;;;;15.65;6.55;;;;;;;;;;5082009;28;32818;-70
2021/04/24 01:37:22;;;;;;;15.95;6.43;;;;;;;;;;5083215;28;32338;-71
2021/04/24 01:39:48;;;;;;;19.10;6.82;;;;;;;;;;5082929;28;32168;-70
2021/04/24 01:42:13;;;;;;;13.50;6.07;;;;;;;;;;5082924;28;31962;-70
2021/04/24 01:44:39;;;;;;;15.82;6.75;;;;;;;;;;5082963;28;33088;-70
2021/04/24 01:47:05;;;;;;;12.82;5.88;;;;;;;;;;5083119;28;32424;-70
2021/04/24 01:49:30;;;;;;;13.40;5.68;;;;;;;;;;5082935;28;31992;-70
2021/04/24 01:51:56;;;;;;;14.38;6.38;;;;;;;;;;5082575;28;32632;-73
2021/04/24 01:54:22;;;;;;;13.93;6.32;;;;;;;;;;5081117;28;32604;-75
2021/04/24 01:56:49;;;;;;;17.33;6.85;;;;;;;;;;5082392;28;32308;-70
2021/04/24 01:59:16;;;;;;;21.05;6.60;;;;;;;;;;5082216;28;31977;-73
2021/04/24 02:01:48;;;;;;;21.27;6.32;;;;;;;;;;5082447;28;32079;-73
2021/04/24 02:04:14;;;;;;;14.90;6.57;;;;;;;;;;5082582;28;33634;-73
2021/04/24 02:06:40;;;;;;;14.52;6.75;;;;;;;;;;5082660;28;32250;-74
2021/04/24 02:09:09;;;;;;;24.65;8.32;;;;;;;;;;5082644;28;32102;-73
2021/04/24 02:11:35;;;;;;;12.90;6.95;;;;;;;;;;5082700;28;31746;-73
2021/04/24 02:14:02;;;;;;;14.75;6.68;;;;;;;;;;5082394;28;32314;-74
2021/04/24 02:16:28;;;;;;;17.27;6.03;;;;;;;;;;5082085;28;32365;-74
2021/04/24 02:18:53;;;;;;;12.52;6.50;;;;;;;;;;5082326;28;31854;-74
2021/04/24 02:21:19;;;;;;;15.32;6.25;;;;;;;;;;5082446;28;32089;-73
2021/04/24 02:23:45;;;;;;;12.65;6.28;;;;;;;;;;5082456;28;32494;-74
2021/04/24 02:26:10;;;;;;;15.50;6.35;;;;;;;;;;5082401;28;32470;-75
2021/04/24 02:28:36;;;;;;;11.32;5.97;;;;;;;;;;5082170;28;33006;-74
2021/04/24 02:31:02;;;;;;;12.10;5.38;;;;;;;;;;5081589;28;32016;-73
2021/04/24 02:33:28;;;;;;;14.40;6.30;;;;;;;;;;5082115;28;33690;-75
2021/04/24 02:35:55;;;;;;;15.00;6.25;;;;;;;;;;5064133;28;31483;-72
2021/04/24 02:38:25;;;;;;;17.83;7.72;;;;;;;;;;5082085;28;31809;-75
2021/04/24 02:40:51;;;;;;;17.92;7.15;;;;;;;;;;5081999;28;31941;-73
2021/04/24 02:43:18;;;;;;;22.05;7.13;;;;;;;;;;5081265;28;32551;-74
2021/04/24 02:45:44;;;;;;;20.13;6.97;;;;;;;;;;5081846;28;33202;-74
2021/04/24 02:48:09;;;;;;;18.80;6.55;;;;;;;;;;5082019;28;31948;-75
2021/04/24 02:50:35;;;;;;;13.30;5.90;;;;;;;;;;5081786;28;31935;-75
2021/04/24 02:53:01;;;;;;;18.48;6.60;;;;;;;;;;5079937;28;32577;-74
2021/04/24 02:55:27;;;;;;;19.17;6.28;;;;;;;;;;5081229;28;32322;-71
2021/04/24 02:57:52;;;;;;;14.23;5.82;;;;;;;;;;5081624;28;33018;-70
2021/04/24 03:00:19;;;;;;;14.13;6.07;;;;;;;;;;5082075;28;31994;-70
2021/04/24 03:02:45;;;;;;;13.90;6.50;;;;;;;;;;5082048;28;32520;-70
2021/04/24 03:05:11;;;;;;;16.20;6.57;;;;;;;;;;5082071;28;32859;-71
2021/04/24 03:07:37;;;;;;;17.70;6.90;;;;;;;;;;5080772;28;31881;-71
2021/04/24 03:10:04;;;;;;;18.15;8.05;;;;;;;;;;5082380;28;31714;-71
2021/04/24 03:12:30;;;;;;;17.92;8.15;;;;;;;;;;5082045;28;32271;-70
2021/04/24 03:14:56;;;;;;;16.25;6.25;;;;;;;;;;5081457;28;32316;-70
2021/04/24 03:17:21;;;;;;;13.73;6.97;;;;;;;;;;5081298;28;32050;-70
2021/04/24 03:19:47;;;;;;;13.18;6.32;;;;;;;;;;5081367;28;32016;-70
2021/04/24 03:22:13;;;;;;;17.13;5.97;;;;;;;;;;5081380;28;33485;-70
2021/04/24 03:24:38;;;;;;;14.70;6.47;;;;;;;;;;5081597;28;32455;-70
2021/04/24 03:27:04;;;;;;;13.95;6.43;;;;;;;;;;5079714;28;30344;-70
2021/04/24 03:29:30;;;;;;;16.10;6.68;;;;;;;;;;5081369;28;31972;-70
2021/04/24 03:31:55;;;;;;;14.80;6.63;;;;;;;;;;5081140;28;33426;-70
2021/04/24 03:34:21;;;;;;;14.60;7.03;;;;;;;;;;5080509;28;32344;-70
2021/04/24 03:36:47;;;;;;;19.83;6.20;;;;;;;;;;5081239;28;32026;-71
2021/04/24 03:39:13;;;;;;;12.40;6.18;;;;;;;;;;5081276;28;31931;-70
2021/04/24 03:41:38;;;;;;;25.08;6.43;;;;;;;;;;5081291;28;33565;-70
2021/04/24 03:44:04;;;;;;;18.77;6.13;;;;;;;;;;5081058;28;32380;-70
2021/04/24 03:46:30;;;;;;;11.45;6.35;;;;;;;;;;5081143;28;31868;-70
2021/04/24 03:48:55;;;;;;;18.38;6.55;;;;;;;;;;5080978;28;31984;-70
2021/04/24 03:51:21;;;;;;;11.32;6.03;;;;;;;;;;5080882;28;33682;-70
2021/04/24 03:53:47;;;;;;;12.45;6.57;;;;;;;;;;5081136;28;32279;-70
2021/04/24 03:56:12;;;;;;;14.35;7.53;;;;;;;;;;5081750;28;32747;-71
2021/04/24 03:58:38;;;;;;;12.20;6.10;;;;;;;;;;5086738;28;32139;-70
2021/04/24 04:01:04;;;;;;;15.63;6.70;;;;;;;;;;5085950;28;30911;-70
2021/04/24 04:03:29;;;;;;;17.17;6.72;;;;;;;;;;5087811;28;32968;-70
2021/04/24 04:05:55;;;;;;;15.63;6.35;;;;;;;;;;5087809;28;32112;-70
2021/04/24 04:08:21;;;;;;;19.15;5.95;;;;;;;;;;5087600;28;32079;-70
2021/04/24 04:10:47;;;;;;;13.45;6.50;;;;;;;;;;5087636;28;32571;-70
2021/04/24 04:13:13;;;;;;;13.13;5.97;;;;;;;;;;5087283;28;33319;-70
2021/04/24 04:15:39;;;;;;;15.23;6.43;;;;;;;;;;5087023;28;31843;-70
2021/04/24 04:18:05;;;;;;;17.70;6.45;;;;;;;;;;5086932;28;32119;-70
2021/04/24 04:20:31;;;;;;;13.77;6.20;;;;;;;;;;5087634;28;32214;-70
2021/04/24 04:22:57;;;;;;;12.32;6.97;;;;;;;;;;5087449;28;32183;-70
2021/04/24 04:25:23;;;;;;;14.52;6.78;;;;;;;;;;5087359;28;32025;-70
2021/04/24 04:27:49;;;;;;;13.50;6.30;;;;;;;;;;5086000;28;32039;-70
2021/04/24 04:30:15;;;;;;;15.80;6.07;;;;;;;;;;5087516;28;32586;-70
2021/04/24 04:32:41;;;;;;;11.85;5.70;;;;;;;;;;5087296;28;33185;-69
2021/04/24 04:35:07;;;;;;;12.07;6.13;;;;;;;;;;5086746;28;32023;-70
2021/04/24 04:37:33;;;;;;;16.00;5.75;;;;;;;;;;5087285;28;31481;-70
2021/04/24 04:39:59;;;;;;;12.45;6.25;;;;;;;;;;5085851;28;31129;-73
2021/04/24 04:42:25;;;;;;;13.77;6.15;;;;;;;;;;5087548;28;32265;-71
2021/04/24 04:44:51;;;;;;;12.77;5.95;;;;;;;;;;5087227;28;32874;-71
2021/04/24 04:47:17;;;;;;;17.00;5.88;;;;;;;;;;5087173;28;32960;-72
2021/04/24 04:49:42;;;;;;;14.80;6.30;;;;;;;;;;5087148;28;32784;-72
2021/04/24 04:52:08;;;;;;;16.67;6.32;;;;;;;;;;5086516;28;32850;-71
2021/04/24 04:54:34;;;;;;;12.13;6.50;;;;;;;;;;5086827;28;31987;-71
2021/04/24 04:57:00;;;;;;;12.63;5.72;;;;;;;;;;5086852;28;31908;-71
2021/04/24 04:59:28;;;;;;;11.63;5.75;;;;;;;;;;5085889;28;32625;-73
2021/04/24 05:01:57;;;;;;;13.07;6.40;;;;;;;;;;5086936;28;32534;-71
2021/04/24 05:04:23;;;;;;;17.58;6.22;;;;;;;;;;5086440;28;31977;-72
2021/04/24 05:06:49;;;;;;;15.60;7.20;;;;;;;;;;5086874;28;32004;-71
2021/04/24 05:09:15;;;;;;;14.77;6.10;;;;;;;;;;5084288;28;32522;-70
2021/04/24 05:11:41;;;;;;;17.90;6.28;;;;;;;;;;5083535;28;33139;-70
2021/04/24 05:14:07;;;;;;;11.00;4.95;;;;;;;;;;5083434;28;31960;-70
2021/04/24 05:16:32;;;;;;;13.43;5.35;;;;;;;;;;5082964;28;32041;-70
2021/04/24 05:18:58;;;;;;;12.93;5.40;;;;;;;;;;5083457;28;32429;-69
2021/04/24 05:21:24;;;;;;;20.52;5.60;;;;;;;;;;5083409;28;32784;-70
2021/04/24 05:23:49;;;;;;;15.55;5.50;;;;;;;;;;5083298;28;32076;-69
2021/04/24 05:26:15;;;;;;;11.35;5.68;;;;;;;;;;5083156;28;32092;-70
2021/04/24 05:28:41;;;;;;;20.92;5.75;;;;;;;;;;5083104;28;32486;-69
2021/04/24 05:31:07;;;;;;;16.35;5.43;;;;;;;;;;5082992;28;32879;-69
2021/04/24 05:33:33;;;;;;;21.75;6.78;;;;;;;;;;5083050;28;32049;-69
2021/04/24 05:36:03;;;;;;;17.83;6.70;;;;;;;;;;5082527;28;32992;-70
2021/04/24 05:38:28;;;;;;;13.07;5.72;;;;;;;;;;5083206;28;32108;-70
2021/04/24 05:40:54;;;;;;;18.00;6.43;;;;;;;;;;5082644;28;33163;-73
2021/04/24 05:43:20;;;;;;;18.02;6.82;;;;;;;;;;5082619;28;32968;-75
2021/04/24 05:45:46;;;;;;;11.32;5.35;;;;;;;;;;5083100;28;32702;-75
2021/04/24 05:48:11;;;;;;;13.80;6.47;;;;;;;;;;5082514;28;32599;-74
2021/04/24 05:50:37;;;;;;;12.93;5.93;;;;;;;;;;5082775;28;32309;-72
2021/04/24 05:53:03;;;;;;;13.00;5.35;;;;;;;;;;5082987;28;32675;-72
2021/04/24 05:55:28;;;;;;;15.23;6.45;;;;;;;;;;5082885;28;32142;-73
2021/04/24 05:57:54;;;;;;;16.17;6.72;;;;;;;;;;5064121;28;32328;-72
2021/04/24 06:00:20;;;;;;;14.25;6.47;;;;;;;;;;5082586;28;32248;-73
2021/04/24 06:02:47;;;;;;;14.10;6.60;;;;;;;;;;5082867;28;32633;-72
2021/04/24 06:05:13;;;;;;;13.82;6.50;;;;;;;;;;5082716;28;32178;-73
2021/04/24 06:07:39;;;;;;;20.05;7.10;;;;;;;;;;5082409;28;32619;-70
2021/04/24 06:10:05;;;;;;;14.38;6.40;;;;;;;;;;5081961;28;32940;-70
2021/04/24 06:12:31;;;;;;;17.33;6.35;;;;;;;;;;5081968;28;31834;-69
2021/04/24 06:14:57;;;;;;;13.20;6.85;;;;;;;;;;5080534;28;32322;-69
2021/04/24 06:17:22;;;;;;;17.67;6.30;;;;;;;;;;5082195;28;32844;-69
2021/04/24 06:19:48;;;;;;;17.17;7.25;;;;;;;;;;5081550;28;32296;-70
2021/04/24 06:22:14;;;;;;;15.68;6.18;;;;;;;;;;5081735;28;33102;-70
2021/04/24 06:24:40;;;;;;;13.43;6.72;;;;;;;;;;5082381;28;32174;-70
2021/04/24 06:27:06;;;;;;;15.40;7.07;;;;;;;;;;5082969;28;33677;-76
2021/04/24 06:29:31;;;;;;;16.88;7.03;;;;;;;;;;5083223;28;32342;-75
2021/04/24 06:31:57;;;;;;;11.30;6.38;;;;;;;;;;5083038;28;31930;-75
2021/04/24 06:34:23;;;;;;;15.13;6.30;;;;;;;;;;5082554;28;33086;-76
2021/04/24 06:36:49;;;;;;;10.40;5.50;;;;;;;;;;5081037;28;30779;-75
2021/04/24 06:39:14;;;;;;;15.48;6.50;;;;;;;;;;5082365;28;32302;-75
2021/04/24 06:41:40;;;;;;;13.95;6.68;;;;;;;;;;5082125;28;32958;-76
2021/04/24 06:44:06;;;;;;;16.20;6.47;;;;;;;;;;5082248;28;32047;-76
2021/04/24 06:46:31;;;;;;;17.27;7.03;;;;;;;;;;5082289;28;33609;-76
2021/04/24 06:48:57;;;;;;;12.32;5.60;;;;;;;;;;5081850;28;32345;-75
2021/04/24 06:51:23;;;;;;;20.98;6.47;;;;;;;;;;5081855;28;32479;-76
2021/04/24 06:53:50;;;;;;;10.13;5.75;;;;;;;;;;5081982;28;31961;-76
2021/04/24 06:56:16;;;;;;;14.77;6.80;;;;;;;;;;5082228;28;32856;-76
2021/04/24 06:58:41;;;;;;;17.42;6.50;;;;;;;;;;5081211;28;32470;-74
2021/04/24 07:01:07;;;;;;;14.15;6.55;;;;;;;;;;5081440;28;32044;-72
2021/04/24 07:03:37;;;;;;;17.20;6.40;;;;;;;;;;5082771;28;32045;-71
2021/04/24 07:06:03;;;;;;;14.07;5.68;;;;;;;;;;5068520;28;32721;-71
2021/04/24 07:08:29;;;;;;;14.23;6.35;;;;;;;;;;5081886;28;32512;-70
2021/04/24 07:10:55;;;;;;;9.80;4.30;;;;;;;;;;5081504;28;32918;-72
2021/04/24 07:13:20;;;;;;;15.45;6.50;;;;;;;;;;5081184;28;32006;-73
2021/04/24 07:15:46;;;;;;;13.05;4.85;;;;;;;;;;5081112;28;33276;-74
2021/04/24 07:18:12;;;;;;;23.27;7.07;;;;;;;;;;5081934;28;32462;-72
2021/04/24 07:20:38;;;;;;;12.02;6.28;;;;;;;;;;5083542;28;32104;-69
2021/04/24 07:23:03;;;;;;;13.98;5.18;;;;;;;;;;5082038;28;32135;-70
2021/04/24 07:25:29;;;;;;;12.80;4.93;;;;;;;;;;5080862;28;32734;-72
2021/04/24 07:27:55;;;;;;;15.20;5.93;;;;;;;;;;5080580;28;33379;-71
2021/04/24 07:30:21;;;;;;;12.65;5.60;;;;;;;;;;5081231;28;31783;-70
2021/04/24 07:32:46;;;;;;;11.90;5.75;;;;;;;;;;5080219;28;31646;-70
2021/04/24 07:35:14;;;;;;;15.70;6.07;;;;;;;;;;5081211;28;32359;-70
2021/04/24 07:37:39;;;;;;;12.55;5.85;;;;;;;;;;5080992;28;32338;-70
2021/04/24 07:40:05;;;;;;;8.60;4.38;;;;;;;;;;5080295;28;32024;-70
2021/04/24 07:42:31;;;;;;;8.77;4.18;;;;;;;;;;5079119;28;30349;-70
2021/04/24 07:44:57;;;;;;;13.27;4.60;;;;;;;;;;5080237;28;32505;-70
2021/04/24 07:47:22;;;;;;;13.07;5.50;;;;;;;;;;5080816;28;32343;-71
2021/04/24 07:49:48;;;;;;;14.18;5.57;;;;;;;;;;5080838;28;32668;-72
2021/04/24 07:52:15;;;;;;;13.90;5.70;;;;;;;;;;5062568;28;30318;-72
2021/04/24 07:54:42;;;;;;;12.57;5.93;;;;;;;;;;5080074;28;33479;-71
2021/04/24 07:57:11;;;;;;;10.68;4.68;;;;;;;;;;5080305;28;32504;-72
2021/04/24 07:59:37;;;;;;;11.85;4.57;;;;;;;;;;5080572;28;31883;-72
2021/04/24 08:02:03;;;;;;;11.18;5.50;;;;;;;;;;5079829;28;31984;-71
2021/04/24 08:04:28;;;;;;;15.30;5.70;;;;;;;;;;5080180;28;32695;-72
2021/04/24 08:06:54;;;;;;;10.43;5.72;;;;;;;;;;5080599;28;32311;-72
2021/04/24 08:09:20;;;;;;;11.63;4.57;;;;;;;;;;5080325;28;31921;-70
2021/04/24 08:11:46;;;;;;;15.73;4.65;;;;;;;;;;5080406;28;32944;-72
2021/04/24 08:14:12;;;;;;;16.98;5.20;;;;;;;;;;5079209;28;32648;-72
2021/04/24 08:16:37;;;;;;;10.32;5.13;;;;;;;;;;5080443;28;32425;-72
2021/04/24 08:19:03;;;;;;;10.15;4.88;;;;;;;;;;5080390;28;31690;-72
2021/04/24 08:21:30;;;;;;;12.23;5.65;;;;;;;;;;5080019;28;32087;-71
2021/04/24 08:23:59;;;;;;;10.00;4.22;;;;;;;;;;5080158;28;32974;-71
2021/04/24 08:26:27;;;;;;;12.63;4.82;;;;;;;;;;5078818;28;32426;-70
2021/04/24 08:28:53;;;;;;;10.32;4.78;;;;;;;;;;5077537;28;31772;-71
2021/04/24 08:31:19;;;;;;;13.60;4.63;;;;;;;;;;5080074;28;32287;-70
2021/04/24 08:33:45;;;;;;;11.43;4.95;;;;;;;;;;5079991;28;33727;-70
2021/04/24 08:36:10;;;;;;;9.65;4.85;;;;;;;;;;5080290;28;32357;-70
2021/04/24 08:38:36;;;;;;;12.27;3.97;;;;;;;;;;5080177;28;31861;-71
2021/04/24 08:41:03;;;;;;;12.43;4.90;;;;;;;;;;5080368;28;32557;-71
2021/04/24 08:43:29;;;;;;;13.00;5.10;;;;;;;;;;5080622;28;32536;-71
2021/04/24 08:45:56;;;;;;;12.40;4.40;;;;;;;;;;5083591;28;32909;-69
2021/04/24 08:48:22;;;;;;;12.30;5.00;;;;;;;;;;5085419;28;32987;-71
2021/04/24 08:50:48;;;;;;;11.32;4.80;;;;;;;;;;5083847;28;32097;-70
2021/04/24 08:53:17;;;;;;;16.42;4.95;;;;;;;;;;5084886;28;33774;-69
2021/04/24 08:55:43;;;;;;;11.70;4.82;;;;;;;;;;5083308;28;32727;-71
2021/04/24 08:58:08;;;;;;;9.43;4.97;;;;;;;;;;5083399;28;32025;-71
2021/04/24 09:00:37;;;;;;;8.43;4.25;;;;;;;;;;5083765;28;31889;-73
2021/04/24 09:03:04;;;;;;;8.00;3.90;;;;;;;;;;5085365;28;32579;-71
2021/04/24 09:05:30;;;;;;;11.05;5.03;;;;;;;;;;5083121;28;33496;-70
2021/04/24 09:08:03;;;;;;;10.55;4.97;;;;;;;;;;5083135;28;37061;-72
2021/04/24 09:10:33;;;;;;;11.67;4.80;;;;;;;;;;5082998;28;32125;-72
2021/04/24 09:12:59;;;;;;;14.55;3.20;;;;;;;;;;5083288;28;31870;-72
2021/04/24 09:15:25;;;;;;;7.75;3.50;;;;;;;;;;5083300;28;32355;-71
2021/04/24 09:17:58;;;;;;;4.53;2.40;;;;;;;;;;5084450;28;32127;-72
2021/04/24 09:20:31;;;;;;;10.50;3.67;;;;;;;;;;5082437;28;32073;-72
2021/04/24 09:22:57;;;;;;;9.05;3.53;;;;;;;;;;5081363;28;33401;-71
2021/04/24 09:25:29;;;;;;;13.05;3.55;;;;;;;;;;5083286;28;33223;-73
2021/04/24 09:27:55;;;;;;;4.30;2.40;;;;;;;;;;5083837;28;32102;-71
2021/04/24 09:30:23;;;;;;;10.38;2.78;;;;;;;;;;5082790;28;31988;-72
2021/04/24 09:32:48;;;;;;;7.55;2.90;;;;;;;;;;5082425;28;33584;-72
2021/04/24 09:35:21;;;;;;;8.82;3.35;;;;;;;;;;5082034;28;33048;-71
2021/04/24 09:37:59;;;;;;;6.78;3.05;;;;;;;;;;5084773;28;32017;-72
2021/04/24 09:40:25;;;;;;;10.57;3.45;;;;;;;;;;5082517;28;32026;-71
2021/04/24 09:42:58;;;;;;;6.70;2.45;;;;;;;;;;5080902;28;30728;-72
2021/04/24 09:45:26;;;;;;;8.05;2.92;;;;;;;;;;5081915;28;38062;-71
2021/04/24 09:47:52;;;;;;;10.85;3.60;;;;;;;;;;5082035;28;32941;-72
2021/04/24 09:50:22;;;;;;;12.38;4.15;;;;;;;;;;5082568;28;32061;-73
2021/04/24 09:52:47;;;;;;;8.30;3.70;;;;;;;;;;5082291;28;33164;-73
2021/04/24 09:55:33;;;;;;;12.70;3.97;;;;;;;;;;5063679;28;32201;-71
2021/04/24 09:57:59;;;;;;;15.75;4.53;;;;;;;;;;5079618;28;31758;-72
2021/04/24 10:00:27;;;;;;;27.92;6.93;;;;;;;;;;5082432;28;32923;-73
2021/04/24 10:02:53;;;;;;;14.20;4.35;;;;;;;;;;5082239;28;32603;-72
2021/04/24 10:05:20;;;;;;;14.77;3.83;;;;;;;;;;5082667;28;32979;-72
2021/04/24 10:07:46;;;;;;;13.75;3.55;;;;;;;;;;5082771;28;31994;-72
2021/04/24 10:10:32;;;;;;;10.50;3.80;;;;;;;;;;5082287;28;31890;-73
2021/04/24 10:12:59;;;;;;;8.27;3.45;;;;;;;;;;5080918;28;33666;-73
2021/04/24 10:15:35;;;;;;;9.13;3.80;;;;;;;;;;5082032;28;32193;-73
2021/04/24 10:18:02;;;;;;;10.55;3.90;;;;;;;;;;5081803;28;31853;-72
2021/04/24 10:20:27;;;;;;;15.82;4.18;;;;;;;;;;5082159;28;31972;-72
2021/04/24 10:22:54;;;;;;;10.95;4.72;;;;;;;;;;5082201;28;32613;-73
2021/04/24 10:25:20;;;;;;;13.50;3.80;;;;;;;;;;5081585;28;32355;-72
2021/04/24 10:27:46;;;;;;;17.17;3.33;;;;;;;;;;5080430;28;31059;-72
2021/04/24 10:30:12;;;;;;;10.55;4.25;;;;;;;;;;5081743;28;32513;-73
2021/04/24 10:32:38;;;;;;;12.98;5.35;;;;;;;;;;5081705;28;32626;-76
2021/04/24 10:35:04;;;;;;;9.52;4.72;;;;;;;;;;5081655;28;32486;-75
2021/04/24 10:37:30;;;;;;;10.60;3.83;;;;;;;;;;5080377;28;31247;-75
2021/04/24 10:40:03;;;;;;;11.60;4.65;;;;;;;;;;5081517;28;32148;-74
2021/04/24 10:42:30;;;;;;;4.73;2.87;;;;;;;;;;5081621;28;31879;-74
2021/04/24 10:44:57;;;;;;;7.28;3.00;;;;;;;;;;5081204;28;32510;-74
2021/04/24 10:47:54;;;;;;;7.22;4.05;;;;;;;;;;5081619;28;31918;-74
2021/04/24 10:50:21;;;;;;;12.98;4.68;;;;;;;;;;5081324;28;32996;-76
2021/04/24 10:52:47;;;;;;;16.10;5.00;;;;;;;;;;5080998;28;33469;-75
2021/04/24 10:55:13;;;;;;;10.25;4.30;;;;;;;;;;5081541;28;32412;-75
2021/04/24 10:57:41;;;;;;;11.10;3.80;;;;;;;;;;5081434;28;32979;-75
2021/04/24 11:00:13;;;;;;;5.70;2.42;;;;;;;;;;5081426;28;31988;-74
2021/04/24 11:02:55;;;;;;;5.93;2.60;;;;;;;;;;5081322;28;32333;-75
2021/04/24 11:05:28;;;;;;;12.23;4.72;;;;;;;;;;5081448;28;32348;-75
2021/04/24 11:08:19;;;;;;;8.98;4.75;;;;;;;;;;5081092;28;37233;-74
2021/04/24 11:11:05;;;;;;;11.68;3.95;;;;;;;;;;5079397;28;31835;-72
2021/04/24 11:13:41;;;;;;;9.63;3.55;;;;;;;;;;5081239;28;32637;-73
2021/04/24 11:16:09;;;;;;;10.20;4.65;;;;;;;;;;5079409;28;33032;-71
2021/04/24 11:18:36;;;;;;;12.02;4.07;;;;;;;;;;5081579;28;32040;-74
2021/04/24 11:21:05;;;;;;;6.72;3.97;;;;;;;;;;5082250;28;31999;-72
2021/04/24 11:23:40;;;;;;;10.73;4.75;;;;;;;;;;5080916;28;32465;-74
2021/04/24 11:26:06;;;;;;;10.63;5.90;;;;;;;;;;5080812;28;33029;-75
2021/04/24 11:28:32;;;;;;;2.95;1.42;;;;;;;;;;5081152;28;32014;-74
2021/04/24 11:30:59;;;;;;;19.08;6.03;;;;;;;;;;5080747;28;32153;-73
2021/04/24 11:33:48;;;;;;;22.65;5.60;;;;;;;;;;5080354;28;32581;-74
2021/04/24 11:38:59;;;;;;;8.95;4.00;;;;;;;;;;5081256;28;31955;-72
2021/04/24 11:41:40;;;;;;;14.68;5.07;;;;;;;;;;5081891;28;31986;-74
2021/04/24 11:44:15;;;;;;;8.07;3.90;;;;;;;;;;5081032;28;32177;-73
2021/04/24 11:46:41;;;;;;;13.48;5.15;;;;;;;;;;5080926;28;32302;-74
2021/04/24 11:49:10;;;;;;;17.23;5.57;;;;;;;;;;5080947;28;32064;-74
2021/04/24 11:51:56;;;;;;;14.15;6.05;;;;;;;;;;5080551;28;31968;-72
2021/04/24 11:54:26;;;;;;;9.20;4.88;;;;;;;;;;5079592;28;32441;-75
2021/04/24 11:56:52;;;;;;;10.73;4.07;;;;;;;;;;5080953;28;31860;-73
2021/04/24 11:59:21;;;;;;;13.43;5.55;;;;;;;;;;5080242;28;33131;-74
2021/04/24 12:01:47;;;;;;;10.93;4.13;;;;;;;;;;5080599;28;32077;-74
2021/04/24 12:04:24;;;;;;;25.63;6.15;;;;;;;;;;5080375;28;32345;-74
2021/04/24 12:06:58;;;;;;;16.02;6.32;;;;;;;;;;5080544;28;31762;-72
2021/04/24 12:09:24;;;;;;;11.35;5.45;;;;;;;;;;5079369;28;31114;-73
2021/04/24 12:11:53;;;;;;;13.55;5.53;;;;;;;;;;5078843;28;30952;-73
2021/04/24 12:14:20;;;;;;;6.22;3.33;;;;;;;;;;5080425;28;33619;-73
2021/04/24 12:16:46;;;;;;;5.53;1.60;;;;;;;;;;5079406;28;32695;-71
2021/04/24 12:19:21;;;;;;;12.90;5.30;;;;;;;;;;5082917;28;32138;-72
2021/04/24 12:21:46;;;;;;;4.13;2.47;;;;;;;;;;5083490;28;32092;-75
2021/04/24 12:24:12;;;;;;;4.47;2.17;;;;;;;;;;5082814;28;33124;-75
2021/04/24 12:26:38;;;;;;;6.90;3.10;;;;;;;;;;5083765;28;32157;-72
2021/04/24 12:29:04;;;;;;;9.75;3.88;;;;;;;;;;5083606;28;32023;-73
2021/04/24 12:31:30;;;;;;;11.00;3.50;;;;;;;;;;5083514;28;31940;-73
2021/04/24 12:33:56;;;;;;;14.40;4.65;;;;;;;;;;5083793;28;32599;-74
2021/04/24 12:36:22;;;;;;;5.70;2.58;;;;;;;;;;5083952;28;32434;-74
2021/04/24 12:38:47;;;;;;;10.50;4.60;;;;;;;;;;5083863;28;32871;-75
2021/04/24 12:41:13;;;;;;;9.70;4.15;;;;;;;;;;5083616;28;31979;-72
2021/04/24 12:43:42;;;;;;;12.20;4.78;;;;;;;;;;5083330;28;33578;-71
2021/04/24 12:46:09;;;;;;;9.30;3.97;;;;;;;;;;5083588;28;32444;-73
2021/04/24 12:48:34;;;;;;;8.52;3.80;;;;;;;;;;5083374;28;31951;-70
2021/04/24 12:51:01;;;;;;;12.85;5.32;;;;;;;;;;5082950;28;31857;-70
2021/04/24 12:53:44;;;;;;;2.08;1.55;;;;;;;;;;5083449;28;32566;-70
2021/04/24 12:56:14;;;;;;;12.98;4.68;;;;;;;;;;5080812;28;32335;-73
2021/04/24 12:58:44;;;;;;;11.02;4.28;;;;;;;;;;5083323;28;32086;-72
2021/04/24 13:01:17;;;;;;;5.57;1.17;;;;;;;;;;5083376;28;32953;-73
2021/04/24 13:03:44;;;;;;;14.02;4.20;;;;;;;;;;5083453;28;33658;-73
2021/04/24 13:06:14;;;;;;;6.55;3.13;;;;;;;;;;5082087;28;32720;-71
2021/04/24 13:08:40;;;;;;;5.18;2.25;;;;;;;;;;5081742;28;32283;-73
2021/04/24 13:11:07;;;;;;;12.32;5.40;;;;;;;;;;5081919;28;31337;-71
2021/04/24 13:13:32;;;;;;;7.75;3.20;;;;;;;;;;5082888;28;32532;-71
2021/04/24 13:15:58;;;;;;;11.57;4.55;;;;;;;;;;5082668;28;32317;-71
2021/04/24 13:18:25;;;;;;;1.45;1.15;;;;;;;;;;5082680;28;32841;-71
2021/04/24 13:20:51;;;;;;;25.50;4.70;;;;;;;;;;5081235;28;31644;-71
2021/04/24 13:23:16;;;;;;;16.70;4.93;;;;;;;;;;5083007;28;32620;-71
2021/04/24 13:25:42;;;;;;;8.60;4.47;;;;;;;;;;5083198;28;32234;-71
2021/04/24 13:28:08;;;;;;;8.25;4.80;;;;;;;;;;5082408;28;31985;-72
2021/04/24 13:30:41;;;;;;;5.05;1.40;;;;;;;;;;5081553;28;31969;-71
2021/04/24 13:33:07;;;;;;;5.20;2.72;;;;;;;;;;5082709;28;32272;-71
2021/04/24 13:35:43;;;;;;;9.43;4.72;;;;;;;;;;5082944;28;32265;-73
2021/04/24 13:38:10;;;;;;;5.85;3.13;;;;;;;;;;5082689;28;36328;-72
2021/04/24 13:40:36;;;;;;;9.60;3.38;;;;;;;;;;5082906;28;32045;-72
2021/04/24 13:43:02;;;;;;;10.23;4.03;;;;;;;;;;5082941;28;32635;-72
2021/04/24 13:45:28;;;;;;;13.10;4.63;;;;;;;;;;5082991;28;32935;-72
2021/04/24 13:47:54;;;;;;;13.43;4.90;;;;;;;;;;5082873;28;31885;-72
2021/04/24 13:50:21;;;;;;;9.00;4.22;;;;;;;;;;5082864;28;32201;-72
2021/04/24 13:52:47;;;;;;;6.07;2.92;;;;;;;;;;5082579;28;32499;-72
2021/04/24 13:55:14;;;;;;;10.73;4.90;;;;;;;;;;5082314;28;33167;-71
2021/04/24 13:57:40;;;;;;;13.35;4.22;;;;;;;;;;5082601;28;31993;-70
2021/04/24 14:00:07;;;;;;;10.05;4.78;;;;;;;;;;5082830;28;32027;-71
2021/04/24 14:02:33;;;;;;;14.00;5.05;;;;;;;;;;5082809;28;33696;-70
2021/04/24 14:04:59;;;;;;;14.20;5.40;;;;;;;;;;5082562;28;32429;-72
2021/04/24 14:07:25;;;;;;;11.15;6.10;;;;;;;;;;5082542;28;31923;-71
2021/04/24 14:09:50;;;;;;;13.43;5.25;;;;;;;;;;5082155;28;32133;-71
2021/04/24 14:12:16;;;;;;;10.93;4.43;;;;;;;;;;5081860;28;32682;-71
2021/04/24 14:14:42;;;;;;;6.80;2.83;;;;;;;;;;5082302;28;32406;-72
2021/04/24 14:17:08;;;;;;;4.53;2.05;;;;;;;;;;5082409;28;31889;-70
2021/04/24 14:19:34;;;;;;;11.57;5.32;;;;;;;;;;5082636;28;32069;-71
2021/04/24 14:21:59;;;;;;;13.27;5.80;;;;;;;;;;5082468;28;32854;-70
2021/04/24 14:24:25;;;;;;;13.18;4.70;;;;;;;;;;5082414;28;32436;-72
2021/04/24 14:26:51;;;;;;;10.18;5.30;;;;;;;;;;5081525;28;32884;-71
2021/04/24 14:29:17;;;;;;;9.15;4.20;;;;;;;;;;5079419;28;33065;-72
2021/04/24 14:31:43;;;;;;;9.07;4.65;;;;;;;;;;5082319;28;32685;-70
2021/04/24 14:34:08;;;;;;;14.68;5.28;;;;;;;;;;5082064;28;32333;-72
2021/04/24 14:36:34;;;;;;;7.00;3.42;;;;;;;;;;5081159;28;32036;-71